Biddeford, Maine
Current Conditions -  °F | °C
As of 3:51 AM on Wednesday 22 Oct 2014 (Local Time) from KPWM Reporting Station
Light Rain Light Rain  
Wind Chill: 50°   Ceiling: 600
Heat Index: 50°   Visibility: 3mi
Dew Point: 48°   Wind: 13mph
Humidity: 93%   Direction: 30°NNE
Pressure: 30.06"   Gusts: NA
Location:  43.49°N, 70.46°W
Report Text: KPWM 220751Z AUTO 03011KT 3SM -RA BR OVC006 10/09 A3006 RMK AO2 SLP180 P0008 T01000089
Loading
Personal Weather Stations






























Interactive Weather Map
Tropical Storm Tracking
New forecast layout! Learn more

10-Day Weather Forecast

Advertisements
Track Severe Weather on mobile